createdAt,value
2023-03-18T00:01:08.949Z,100230.63
2023-03-18T00:03:38.732Z,100235.81
2023-03-18T00:06:08.734Z,100236.88
2023-03-18T00:08:37.798Z,100225.25
2023-03-18T00:11:08.179Z,100231.22
2023-03-18T00:13:36.569Z,100233.78
2023-03-18T00:16:09.491Z,100224.91
2023-03-18T00:18:39.593Z,100228.78
2023-03-18T00:21:10.235Z,100224.06
2023-03-18T00:23:38.936Z,100232.59
2023-03-18T00:26:09.402Z,100227.78
2023-03-18T00:28:40.220Z,100226.16
2023-03-18T00:31:09.917Z,100228.13
2023-03-18T00:33:43.744Z,100227.47
2023-03-18T00:36:13.972Z,100228.72
2023-03-18T00:38:43.074Z,100233.78
2023-03-18T00:41:16.188Z,100234.28
2023-03-18T00:43:52.849Z,100242.63
2023-03-18T00:46:24.609Z,100246.84
2023-03-18T00:48:56.100Z,100247.09
2023-03-18T00:51:26.693Z,100257.69
2023-03-18T00:53:57.201Z,100256.09
2023-03-18T00:56:28.618Z,100256.47
2023-03-18T00:59:00.125Z,100266.88
2023-03-18T01:01:31.614Z,100264.69
2023-03-18T01:04:02.655Z,100265.06
2023-03-18T01:06:32.753Z,100271.81
2023-03-18T01:09:01.490Z,100272.28
2023-03-18T01:11:29.850Z,100274.69
2023-03-18T01:13:59.526Z,100271.63
2023-03-18T01:16:29.795Z,100263.22
2023-03-18T01:18:58.357Z,100265.78
2023-03-18T01:21:27.922Z,100255.88
2023-03-18T01:24:00.967Z,100253.06
2023-03-18T01:26:30.436Z,100256.25
2023-03-18T01:29:00.853Z,100258.84
2023-03-18T01:31:31.031Z,100261.59
2023-03-18T01:34:05.011Z,100260.03
2023-03-18T01:36:44.627Z,100267.25
2023-03-18T01:39:12.614Z,100266.53
2023-03-18T01:41:40.950Z,100265.41
2023-03-18T01:44:15.616Z,100266.56
2023-03-18T01:46:49.637Z,100259.44
2023-03-18T01:49:23.168Z,100270.50
2023-03-18T01:51:56.669Z,100272.94
2023-03-18T01:54:28.392Z,100268.47
2023-03-18T01:56:57.454Z,100262.56
2023-03-18T01:59:28.935Z,100249.94
2023-03-18T02:02:02.649Z,100257.25
2023-03-18T02:04:38.190Z,100259.69
2023-03-18T02:07:08.982Z,100257.91
2023-03-18T02:09:37.599Z,100252.59
2023-03-18T02:12:08.675Z,100252.63
2023-03-18T02:14:36.837Z,100259.66
2023-03-18T02:17:12.492Z,100266.59
2023-03-18T02:22:27.629Z,100258.50
2023-03-18T02:25:14.252Z,100269.22
2023-03-18T02:27:47.558Z,100268.03
2023-03-18T02:30:20.761Z,100266.59
2023-03-18T02:32:53.510Z,100262.97
2023-03-18T02:35:22.752Z,100257.56
2023-03-18T02:37:53.081Z,100265.69
2023-03-18T02:40:29.300Z,100266.19
2023-03-18T02:43:10.922Z,100262.03
2023-03-18T02:45:51.848Z,100269.56
2023-03-18T02:48:24.290Z,100276.63
2023-03-18T02:50:52.742Z,100276.53
2023-03-18T02:53:20.970Z,100283.91
2023-03-18T02:55:49.354Z,100291.44
2023-03-18T02:58:28.672Z,100283.91
2023-03-18T03:01:04.544Z,100285.25
2023-03-18T03:03:34.758Z,100271.28
2023-03-18T03:06:04.143Z,100290.72
2023-03-18T03:08:36.072Z,100288.91
2023-03-18T03:11:14.555Z,100275.84
2023-03-18T03:13:46.394Z,100296.28
2023-03-18T03:16:18.502Z,100291.69
2023-03-18T03:18:46.894Z,100286.94
2023-03-18T03:21:17.238Z,100292.72
2023-03-18T03:23:47.780Z,100295.31
2023-03-18T03:26:17.013Z,100301.66
2023-03-18T03:28:46.972Z,100315.59
2023-03-18T03:31:15.648Z,100310.03
2023-03-18T03:33:44.224Z,100318.44
2023-03-18T03:36:14.394Z,100308.63
2023-03-18T03:38:43.707Z,100306.81
2023-03-18T03:41:13.601Z,100309.66
2023-03-18T03:43:42.379Z,100303.63
2023-03-18T03:46:12.777Z,100297.38
2023-03-18T03:48:42.211Z,100297.06
2023-03-18T03:51:15.224Z,100295.66
2023-03-18T03:53:44.567Z,100298.56
2023-03-18T03:56:13.352Z,100303.16
2023-03-18T03:58:42.351Z,100309.69
2023-03-18T04:01:12.678Z,100312.09
2023-03-18T04:03:41.605Z,100309.47
2023-03-18T04:06:11.499Z,100314.41
2023-03-18T04:08:46.926Z,100319.63
2023-03-18T04:11:16.280Z,100326.81
2023-03-18T04:13:45.701Z,100332.28
2023-03-18T04:16:17.151Z,100325.28
2023-03-18T04:18:46.013Z,100316.72
2023-03-18T04:21:16.710Z,100311.25
2023-03-18T04:23:49.724Z,100311.56
2023-03-18T04:26:20.246Z,100314.13
2023-03-18T04:28:49.602Z,100319.81
2023-03-18T04:31:19.618Z,100325.50
2023-03-18T04:33:49.267Z,100315.88
2023-03-18T04:36:17.535Z,100319.78
2023-03-18T04:38:46.816Z,100324.50
2023-03-18T04:41:16.357Z,100323.28
2023-03-18T04:43:45.678Z,100328.34
2023-03-18T04:46:14.037Z,100334.63
2023-03-18T04:48:45.998Z,100332.94
2023-03-18T04:51:16.621Z,100332.00
2023-03-18T04:53:46.724Z,100330.91
2023-03-18T04:56:15.677Z,100331.72
2023-03-18T04:58:49.326Z,100340.03
2023-03-18T05:01:22.627Z,100334.41
2023-03-18T05:03:53.108Z,100331.41
2023-03-18T05:06:25.641Z,100332.38
2023-03-18T05:09:01.303Z,100328.19
2023-03-18T05:11:34.695Z,100331.28
2023-03-18T05:14:12.626Z,100334.50
2023-03-18T05:16:47.535Z,100323.56
2023-03-18T05:19:18.111Z,100323.66
2023-03-18T05:21:57.900Z,100322.41
2023-03-18T05:24:27.380Z,100328.66
2023-03-18T05:26:56.204Z,100330.44
2023-03-18T05:29:28.946Z,100326.75
2023-03-18T05:32:12.795Z,100346.53
2023-03-18T05:34:43.503Z,100332.63
2023-03-18T05:37:15.571Z,100336.63
2023-03-18T05:39:49.988Z,100336.72
2023-03-18T05:42:20.679Z,100348.25
2023-03-18T05:44:49.964Z,100354.91
2023-03-18T05:47:22.684Z,100347.97
2023-03-18T05:50:09.046Z,100348.13
2023-03-18T05:52:38.922Z,100352.31
2023-03-18T05:55:15.570Z,100348.50
2023-03-18T05:57:46.792Z,100343.25
2023-03-18T06:00:18.714Z,100354.09
2023-03-18T06:02:50.115Z,100359.06
2023-03-18T06:05:21.459Z,100357.81
2023-03-18T06:07:50.653Z,100368.69
2023-03-18T06:10:20.648Z,100368.00
2023-03-18T06:12:50.986Z,100372.53
2023-03-18T06:15:21.479Z,100365.84
2023-03-18T06:17:50.432Z,100363.31
2023-03-18T06:20:21.924Z,100360.47
2023-03-18T06:22:50.390Z,100361.31
2023-03-18T06:25:24.242Z,100364.94
2023-03-18T06:27:53.928Z,100358.78
2023-03-18T06:30:27.856Z,100365.97
2023-03-18T06:32:56.892Z,100359.47
2023-03-18T06:35:30.478Z,100367.19
2023-03-18T06:37:59.849Z,100365.66
2023-03-18T06:40:36.470Z,100381.03
2023-03-18T06:46:07.769Z,100386.34
2023-03-18T06:48:40.458Z,100396.16
2023-03-18T06:51:13.951Z,100395.22
2023-03-18T06:53:45.763Z,100399.44
2023-03-18T06:56:16.914Z,100404.00
2023-03-18T06:58:56.256Z,100402.63
2023-03-18T07:01:27.089Z,100413.09
2023-03-18T07:03:56.678Z,100416.53
2023-03-18T07:06:29.847Z,100423.31
2023-03-18T07:09:02.190Z,100415.19
2023-03-18T07:11:31.411Z,100416.09
2023-03-18T07:14:06.263Z,100407.16
2023-03-18T07:16:37.476Z,100415.66
2023-03-18T07:19:07.122Z,100420.56
2023-03-18T07:21:41.007Z,100420.69
2023-03-18T07:24:10.136Z,100422.63
2023-03-18T07:27:12.079Z,100426.09
2023-03-18T07:29:58.988Z,100438.56
2023-03-18T07:32:35.900Z,100438.03
2023-03-18T07:35:11.211Z,100447.13
2023-03-18T07:37:53.319Z,100446.59
2023-03-18T07:40:27.342Z,100447.47
2023-03-18T07:43:20.292Z,100459.59
2023-03-18T07:48:53.612Z,100470.34
2023-03-18T07:51:21.676Z,100466.59
2023-03-18T07:53:50.734Z,100468.50
2023-03-18T07:56:18.717Z,100469.91
2023-03-18T07:58:46.688Z,100465.81
2023-03-18T08:01:16.593Z,100463.13
2023-03-18T08:03:44.855Z,100474.41
2023-03-18T08:06:15.327Z,100469.81
2023-03-18T08:08:44.641Z,100468.56
2023-03-18T08:11:13.307Z,100476.81
2023-03-18T08:13:41.333Z,100479.00
2023-03-18T08:16:31.477Z,100468.31
2023-03-18T08:19:36.544Z,100473.31
2023-03-18T08:22:39.801Z,100482.44
2023-03-18T08:25:13.238Z,100486.84
2023-03-18T08:27:45.281Z,100483.81
2023-03-18T08:30:17.264Z,100489.75
2023-03-18T08:32:46.559Z,100493.03
2023-03-18T08:35:25.948Z,100481.59
2023-03-18T08:37:56.351Z,100485.94
2023-03-18T08:40:31.806Z,100483.78
2023-03-18T08:42:59.966Z,100488.97
2023-03-18T08:45:28.764Z,100496.22
2023-03-18T08:47:57.048Z,100492.63
2023-03-18T08:50:28.546Z,100501.69
2023-03-18T08:53:01.646Z,100495.03
2023-03-18T08:55:34.042Z,100493.84
2023-03-18T08:58:04.530Z,100499.94
2023-03-18T09:00:35.463Z,100496.34
2023-03-18T09:03:05.372Z,100499.75
2023-03-18T09:05:36.064Z,100502.31
2023-03-18T09:08:42.173Z,100505.44
2023-03-18T09:11:13.964Z,100507.03
2023-03-18T09:13:42.253Z,100501.22
2023-03-18T09:16:22.392Z,100506.91
2023-03-18T09:24:47.975Z,100520.97
2023-03-18T09:27:30.837Z,100506.69
2023-03-18T09:30:13.961Z,100511.34
2023-03-18T09:42:01.132Z,100522.00
2023-03-18T09:44:36.277Z,100520.09
2023-03-18T09:47:26.203Z,100522.00
2023-03-18T09:50:11.359Z,100513.31
2023-03-18T09:52:45.368Z,100517.47
2023-03-18T09:59:00.475Z,100527.03
2023-03-18T10:01:29.908Z,100519.41
2023-03-18T10:04:04.094Z,100522.03
2023-03-18T10:09:34.731Z,100524.34
2023-03-18T10:12:14.724Z,100526.59
2023-03-18T10:14:50.224Z,100527.72
2023-03-18T10:20:39.806Z,100540.59
2023-03-18T10:26:41.828Z,100534.81
2023-03-18T10:29:24.920Z,100547.09
2023-03-18T10:32:08.385Z,100533.56
2023-03-18T10:34:44.367Z,100551.63
2023-03-18T10:37:25.189Z,100536.06
2023-03-18T10:39:55.071Z,100543.78
2023-03-18T10:42:26.781Z,100542.22
2023-03-18T10:44:58.384Z,100542.81
2023-03-18T10:47:30.381Z,100538.13
2023-03-18T10:50:06.349Z,100545.53
2023-03-18T10:52:43.240Z,100546.00
2023-03-18T10:55:17.977Z,100549.97
2023-03-18T10:57:48.360Z,100547.72
2023-03-18T11:03:38.547Z,100549.94
2023-03-18T11:06:14.189Z,100550.41
2023-03-18T11:08:44.982Z,100547.88
2023-03-18T11:11:21.875Z,100548.47
2023-03-18T11:13:55.990Z,100546.16
2023-03-18T11:16:29.792Z,100555.22
2023-03-18T11:18:59.780Z,100550.69
2023-03-18T11:21:29.809Z,100547.16
2023-03-18T11:24:20.945Z,100557.59
2023-03-18T11:26:54.473Z,100551.66
2023-03-18T11:29:26.099Z,100551.19
2023-03-18T11:31:59.894Z,100551.66
2023-03-18T11:34:30.867Z,100556.22
2023-03-18T11:37:04.516Z,100560.06
2023-03-18T11:39:37.636Z,100566.69
2023-03-18T11:42:18.922Z,100560.19
2023-03-18T11:44:47.817Z,100556.38
2023-03-18T11:47:24.232Z,100562.47
2023-03-18T11:49:54.514Z,100555.25
2023-03-18T11:55:23.957Z,100554.25
2023-03-18T11:58:18.048Z,100554.75
2023-03-18T12:00:53.887Z,100553.44
2023-03-18T12:04:06.133Z,100558.03
2023-03-18T12:06:42.884Z,100551.06
2023-03-18T12:09:22.749Z,100556.03
2023-03-18T12:12:06.969Z,100556.53
2023-03-18T12:14:42.179Z,100548.91
2023-03-18T12:17:25.757Z,100559.88
2023-03-18T12:20:10.382Z,100554.00
2023-03-18T12:23:07.218Z,100559.75
2023-03-18T12:25:58.691Z,100559.84
2023-03-18T12:28:39.218Z,100554.38
2023-03-18T12:31:28.037Z,100556.00
2023-03-18T12:33:58.825Z,100564.31
2023-03-18T12:36:40.442Z,100556.41
2023-03-18T12:39:35.470Z,100562.56
2023-03-18T12:42:09.433Z,100561.47
2023-03-18T12:44:57.925Z,100562.81
2023-03-18T12:47:32.383Z,100559.72
2023-03-18T12:50:05.031Z,100564.50
2023-03-18T12:52:41.369Z,100556.81
2023-03-18T12:55:18.709Z,100552.25
2023-03-18T12:57:50.116Z,100544.53
2023-03-18T13:00:24.871Z,100552.91
2023-03-18T13:03:00.092Z,100547.09
2023-03-18T13:05:42.048Z,100551.97
2023-03-18T13:08:48.517Z,100549.13
2023-03-18T13:11:44.662Z,100546.22
2023-03-18T13:14:22.974Z,100555.22
2023-03-18T13:16:52.073Z,100555.19
2023-03-18T13:19:20.081Z,100553.03
2023-03-18T13:22:04.975Z,100551.31
2023-03-18T13:24:54.037Z,100554.31
2023-03-18T13:27:54.831Z,100549.94
2023-03-18T13:30:33.057Z,100556.97
2023-03-18T13:33:27.197Z,100555.25
2023-03-18T13:36:24.026Z,100553.16
2023-03-18T13:39:02.387Z,100551.38
2023-03-18T13:41:47.127Z,100558.00
2023-03-18T13:44:26.152Z,100555.09
2023-03-18T13:47:03.217Z,100549.16
2023-03-18T13:49:33.752Z,100546.16
2023-03-18T13:52:04.077Z,100554.19
2023-03-18T13:54:36.684Z,100549.97
2023-03-18T13:57:37.368Z,100554.34
2023-03-18T14:00:33.687Z,100547.13
2023-03-18T14:03:20.553Z,100544.78
2023-03-18T14:05:50.427Z,100539.59
2023-03-18T14:08:48.339Z,100535.19
2023-03-18T14:11:50.478Z,100536.41
2023-03-18T14:14:57.099Z,100538.56
2023-03-18T14:17:35.358Z,100527.97
2023-03-18T14:20:19.632Z,100529.34
2023-03-18T14:22:50.773Z,100518.00
2023-03-18T14:25:38.089Z,100526.31
2023-03-18T14:28:20.605Z,100523.41
2023-03-18T14:30:56.040Z,100521.22
2023-03-18T14:33:56.770Z,100524.47
2023-03-18T14:36:50.551Z,100528.50
2023-03-18T14:39:22.157Z,100524.66
2023-03-18T14:41:56.038Z,100532.59
2023-03-18T14:44:29.892Z,100536.25
2023-03-18T14:47:00.709Z,100533.63
2023-03-18T14:49:45.494Z,100530.09
2023-03-18T14:52:30.581Z,100523.06
2023-03-18T14:55:03.776Z,100525.91
2023-03-18T14:57:32.929Z,100517.19
2023-03-18T15:00:02.320Z,100530.44
2023-03-18T15:02:35.774Z,100515.47
2023-03-18T15:05:07.817Z,100527.78
2023-03-18T15:07:45.531Z,100522.53
2023-03-18T15:10:17.856Z,100531.28
2023-03-18T15:12:46.134Z,100527.00
2023-03-18T15:15:18.297Z,100521.09
2023-03-18T15:17:49.844Z,100520.03
2023-03-18T15:20:20.467Z,100516.88
2023-03-18T15:22:49.104Z,100520.19
2023-03-18T15:25:21.081Z,100520.09
2023-03-18T15:27:49.926Z,100521.41
2023-03-18T15:30:27.189Z,100516.25
2023-03-18T15:33:04.830Z,100523.03
2023-03-18T15:35:35.584Z,100519.88
2023-03-18T15:38:14.682Z,100514.47
2023-03-18T15:40:53.475Z,100511.09
2023-03-18T15:43:30.444Z,100513.31
2023-03-18T15:46:00.457Z,100511.47
2023-03-18T15:48:36.033Z,100511.88
2023-03-18T15:51:09.946Z,100505.75
2023-03-18T15:53:44.695Z,100514.88
2023-03-18T15:56:19.661Z,100511.00
2023-03-18T15:58:58.003Z,100521.50
2023-03-18T16:01:26.464Z,100521.25
2023-03-18T16:03:54.835Z,100515.78
2023-03-18T16:06:24.636Z,100511.91
2023-03-18T16:08:52.663Z,100512.22
2023-03-18T16:11:23.620Z,100512.44
2023-03-18T16:13:53.256Z,100520.53
2023-03-18T16:16:27.822Z,100512.06
2023-03-18T16:18:57.219Z,100520.88
2023-03-18T16:21:27.012Z,100514.72
2023-03-18T16:23:55.860Z,100515.78
2023-03-18T16:26:24.092Z,100508.72
2023-03-18T16:28:52.972Z,100517.63
2023-03-18T16:31:20.920Z,100518.22
2023-03-18T16:33:52.697Z,100516.03
2023-03-18T16:36:34.083Z,100517.34
2023-03-18T16:39:05.278Z,100520.44
2023-03-18T16:41:34.556Z,100515.41
2023-03-18T16:44:03.621Z,100521.44
2023-03-18T16:46:32.480Z,100525.13
2023-03-18T16:49:02.566Z,100533.75
2023-03-18T16:51:34.227Z,100523.72
2023-03-18T16:54:02.005Z,100521.88
2023-03-18T16:56:30.185Z,100524.06
2023-03-18T16:58:58.159Z,100528.69
2023-03-18T17:01:28.270Z,100540.41
2023-03-18T17:03:57.150Z,100535.28
2023-03-18T17:06:26.193Z,100540.25
2023-03-18T17:08:56.682Z,100537.41
2023-03-18T17:11:24.911Z,100550.25
2023-03-18T17:13:54.328Z,100542.28
2023-03-18T17:16:23.146Z,100540.28
2023-03-18T17:18:51.442Z,100538.38
2023-03-18T17:21:19.617Z,100536.78
2023-03-18T17:23:47.925Z,100540.28
2023-03-18T17:26:17.411Z,100538.03
2023-03-18T17:28:48.351Z,100544.06
2023-03-18T17:31:17.317Z,100552.25
2023-03-18T17:33:45.773Z,100554.94
2023-03-18T17:36:13.815Z,100553.25
2023-03-18T17:38:41.918Z,100558.44
2023-03-18T17:41:19.477Z,100557.34
2023-03-18T17:43:47.394Z,100552.63
2023-03-18T17:46:15.386Z,100562.75
2023-03-18T17:48:43.834Z,100557.06
2023-03-18T17:51:16.973Z,100565.81
2023-03-18T17:53:47.892Z,100564.47
2023-03-18T17:56:19.664Z,100570.13
2023-03-18T17:58:49.416Z,100566.91
2023-03-18T18:01:19.672Z,100563.47
2023-03-18T18:03:48.535Z,100563.00
2023-03-18T18:06:19.220Z,100561.16
2023-03-18T18:08:48.370Z,100564.81
2023-03-18T18:11:21.324Z,100554.75
2023-03-18T18:13:50.989Z,100561.09
2023-03-18T18:16:19.952Z,100557.75
2023-03-18T18:18:49.872Z,100565.44
2023-03-18T18:21:21.398Z,100565.13
2023-03-18T18:23:49.838Z,100570.47
2023-03-18T18:26:21.468Z,100575.72
2023-03-18T18:28:51.148Z,100579.50
2023-03-18T18:31:20.762Z,100572.72
2023-03-18T18:33:50.478Z,100583.53
2023-03-18T18:36:18.724Z,100577.66
2023-03-18T18:38:47.031Z,100578.19
2023-03-18T18:41:15.239Z,100586.28
2023-03-18T18:43:44.476Z,100578.25
2023-03-18T18:46:14.865Z,100581.91
2023-03-18T18:48:45.471Z,100586.19
2023-03-18T18:51:18.412Z,100585.88
2023-03-18T18:53:47.571Z,100581.38
2023-03-18T18:56:20.528Z,100582.88
2023-03-18T18:58:51.766Z,100582.44
2023-03-18T19:01:20.952Z,100583.59
2023-03-18T19:03:49.992Z,100580.47
2023-03-18T19:06:27.991Z,100590.50
2023-03-18T19:08:58.097Z,100590.94
2023-03-18T19:11:27.492Z,100589.72
2023-03-18T19:14:18.355Z,100589.47
2023-03-18T19:16:49.259Z,100583.78
2023-03-18T19:19:29.680Z,100591.41
2023-03-18T19:21:59.117Z,100588.28
2023-03-18T19:24:31.038Z,100594.22
2023-03-18T19:27:02.633Z,100598.66
2023-03-18T19:29:33.555Z,100586.50
2023-03-18T19:32:02.256Z,100589.59
2023-03-18T19:34:32.185Z,100585.34
2023-03-18T19:37:02.978Z,100593.03
2023-03-18T19:39:31.756Z,100593.09
2023-03-18T19:41:59.733Z,100584.91
2023-03-18T19:44:28.041Z,100592.19
2023-03-18T19:47:01.235Z,100588.78
2023-03-18T19:49:32.988Z,100591.81
2023-03-18T19:52:02.155Z,100614.41
2023-03-18T19:54:32.626Z,100619.16
2023-03-18T19:57:03.903Z,100618.94
2023-03-18T19:59:38.794Z,100643.78
2023-03-18T20:02:20.276Z,100640.50
2023-03-18T20:04:49.454Z,100653.22
2023-03-18T20:07:19.031Z,100640.59
2023-03-18T20:09:47.424Z,100652.22
2023-03-18T20:12:24.633Z,100660.16
2023-03-18T20:14:52.802Z,100652.16
2023-03-18T20:17:41.304Z,100660.19
2023-03-18T20:20:15.639Z,100670.47
2023-03-18T20:22:48.214Z,100667.81
2023-03-18T20:25:21.874Z,100657.78
2023-03-18T20:27:53.561Z,100655.59
2023-03-18T20:30:28.702Z,100658.72
2023-03-18T20:32:59.999Z,100667.00
2023-03-18T20:35:31.041Z,100661.69
2023-03-18T20:38:01.455Z,100652.06
2023-03-18T20:40:31.965Z,100649.41
2023-03-18T20:43:00.441Z,100655.56
2023-03-18T20:45:29.400Z,100662.38
2023-03-18T20:47:59.008Z,100655.81
2023-03-18T20:50:29.771Z,100658.78
2023-03-18T20:52:58.937Z,100650.22
2023-03-18T20:55:30.748Z,100656.28
2023-03-18T20:58:00.546Z,100659.09
2023-03-18T21:00:31.169Z,100662.03
2023-03-18T21:03:03.154Z,100658.31
2023-03-18T21:05:31.597Z,100664.25
2023-03-18T21:07:59.791Z,100660.63
2023-03-18T21:10:28.968Z,100653.84
2023-03-18T21:12:58.355Z,100651.28
2023-03-18T21:15:28.273Z,100644.69
2023-03-18T21:17:56.690Z,100649.16
2023-03-18T21:20:31.680Z,100654.97
2023-03-18T21:23:00.508Z,100658.91
2023-03-18T21:25:29.863Z,100654.22
2023-03-18T21:27:59.408Z,100653.91
2023-03-18T21:30:27.957Z,100641.63
2023-03-18T21:32:56.512Z,100648.63
2023-03-18T21:35:27.245Z,100648.78
2023-03-18T21:37:57.258Z,100644.41
2023-03-18T21:40:27.082Z,100653.72
2023-03-18T21:42:55.872Z,100656.13
2023-03-18T21:45:26.350Z,100651.97
2023-03-18T21:48:01.268Z,100657.97
2023-03-18T21:50:45.278Z,100658.41
2023-03-18T21:53:35.099Z,100654.13
2023-03-18T21:56:18.438Z,100651.50
2023-03-18T21:58:48.507Z,100651.44
2023-03-18T22:01:23.931Z,100654.69
2023-03-18T22:03:56.123Z,100644.06
2023-03-18T22:06:30.639Z,100643.81
2023-03-18T22:11:55.102Z,100637.47
2023-03-18T22:14:23.709Z,100654.06
2023-03-18T22:16:52.863Z,100651.06
2023-03-18T22:19:23.774Z,100646.69
2023-03-18T22:21:52.839Z,100650.28
2023-03-18T22:24:27.691Z,100654.06
2023-03-18T22:26:58.711Z,100646.53
2023-03-18T22:29:30.445Z,100646.31
2023-03-18T22:31:59.470Z,100640.63
2023-03-18T22:34:28.659Z,100648.28
2023-03-18T22:37:01.155Z,100643.00
2023-03-18T22:39:33.021Z,100649.19
2023-03-18T22:42:03.215Z,100641.44
2023-03-18T22:44:35.487Z,100640.16
2023-03-18T22:47:14.210Z,100639.31
2023-03-18T22:49:44.487Z,100638.22
2023-03-18T22:52:21.436Z,100649.34
2023-03-18T22:54:58.724Z,100647.25
2023-03-18T22:57:29.187Z,100637.53
2023-03-18T23:00:02.690Z,100642.63
2023-03-18T23:02:34.349Z,100646.88
2023-03-18T23:05:03.946Z,100644.66
2023-03-18T23:07:35.944Z,100637.88
2023-03-18T23:10:07.047Z,100634.44
2023-03-18T23:12:35.621Z,100639.16
2023-03-18T23:15:08.769Z,100636.69
2023-03-18T23:17:39.712Z,100635.25
2023-03-18T23:20:11.317Z,100638.06
2023-03-18T23:22:40.973Z,100630.13
2023-03-18T23:25:20.129Z,100623.94
2023-03-18T23:27:49.710Z,100626.78
2023-03-18T23:30:21.782Z,100619.56
2023-03-18T23:32:52.656Z,100622.19
2023-03-18T23:35:22.077Z,100630.16
2023-03-18T23:37:50.727Z,100632.66
2023-03-18T23:40:22.209Z,100628.81
2023-03-18T23:42:55.578Z,100625.19
2023-03-18T23:45:25.090Z,100627.78
2023-03-18T23:47:57.155Z,100625.16
2023-03-18T23:50:27.583Z,100631.81
2023-03-18T23:53:01.689Z,100628.97
2023-03-18T23:55:42.570Z,100637.66
2023-03-18T23:58:37.558Z,100626.47
